createdAt,value
2019-05-07T00:00:59.951Z,98093.20
2019-05-07T00:02:10.292Z,98090.38
2019-05-07T00:03:12.925Z,98093.17
2019-05-07T00:04:16.588Z,98089.96
2019-05-07T00:05:19.122Z,98097.22
2019-05-07T00:06:23.081Z,98095.89
2019-05-07T00:07:25.868Z,98093.39
2019-05-07T00:08:32.055Z,98091.38
2019-05-07T00:09:34.980Z,98095.03
2019-05-07T00:10:37.521Z,98095.18
2019-05-07T00:11:40.074Z,98091.03
2019-05-07T00:12:43.184Z,98094.14
2019-05-07T00:13:45.863Z,98094.95
2019-05-07T00:14:58.977Z,98090.02
2019-05-07T00:15:55.184Z,98088.30
2019-05-07T00:16:57.199Z,98096.11
2019-05-07T00:17:59.783Z,98096.25
2019-05-07T00:19:02.382Z,98097.58
2019-05-07T00:20:06.779Z,98093.89
2019-05-07T00:21:08.979Z,98100.25
2019-05-07T00:22:12.574Z,98094.14
2019-05-07T00:23:15.039Z,98092.08
2019-05-07T00:24:17.421Z,98093.28
2019-05-07T00:25:20.015Z,98095.22
2019-05-07T00:26:22.694Z,98089.22
2019-05-07T00:27:24.943Z,98095.19
2019-05-07T00:28:26.781Z,98089.22
2019-05-07T00:29:32.161Z,98087.27
2019-05-07T00:30:34.680Z,98088.39
2019-05-07T00:31:38.521Z,98093.03
2019-05-07T00:32:42.385Z,98096.11
2019-05-07T00:33:44.894Z,98086.95
2019-05-07T00:34:54.196Z,98098.24
2019-05-07T00:35:58.286Z,98095.05
2019-05-07T00:37:15.021Z,98095.05
2019-05-07T00:38:19.312Z,98093.55
2019-05-07T00:39:22.047Z,98092.53
2019-05-07T00:40:28.328Z,98089.56
2019-05-07T00:41:32.489Z,98085.24
2019-05-07T00:42:53.243Z,98094.52
2019-05-07T00:43:57.393Z,98095.73
2019-05-07T00:45:14.304Z,98092.94
2019-05-07T00:46:08.200Z,98089.94
2019-05-07T00:47:12.695Z,98091.47
2019-05-07T00:48:14.725Z,98093.77
2019-05-07T00:49:16.758Z,98092.45
2019-05-07T00:50:22.529Z,98093.31
2019-05-07T00:51:30.276Z,98100.95
2019-05-07T00:52:33.528Z,98100.31
2019-05-07T00:53:37.736Z,98101.26
2019-05-07T00:54:41.751Z,98103.42
2019-05-07T00:55:44.539Z,98099.30
2019-05-07T00:56:46.884Z,98098.84
2019-05-07T00:57:49.266Z,98098.98
2019-05-07T00:58:52.723Z,98098.98
2019-05-07T00:59:55.557Z,98100.63
2019-05-07T01:00:58.296Z,98098.30
2019-05-07T01:02:02.198Z,98096.28
2019-05-07T01:03:05.743Z,98091.64
2019-05-07T01:04:11.895Z,98089.65
2019-05-07T01:05:14.146Z,98089.94
2019-05-07T01:06:16.669Z,98094.30
2019-05-07T01:07:18.371Z,98098.75
2019-05-07T01:08:22.734Z,98098.44
2019-05-07T01:09:24.653Z,98100.25
2019-05-07T01:10:27.000Z,98105.23
2019-05-07T01:11:29.425Z,98097.60
2019-05-07T01:12:32.882Z,98100.14
2019-05-07T01:13:35.424Z,98102.91
2019-05-07T01:14:37.591Z,98101.26
2019-05-07T01:15:39.797Z,98104.45
2019-05-07T01:16:42.314Z,98102.52
2019-05-07T01:17:44.897Z,98102.59
2019-05-07T01:18:47.325Z,98100.63
2019-05-07T01:19:49.746Z,98103.59
2019-05-07T01:20:53.281Z,98102.27
2019-05-07T01:21:55.569Z,98100.80
2019-05-07T01:22:57.866Z,98098.67
2019-05-07T01:24:00.177Z,98103.73
2019-05-07T01:25:03.725Z,98106.37
2019-05-07T01:26:06.181Z,98107.38
2019-05-07T01:27:08.582Z,98104.52
2019-05-07T01:28:13.015Z,98103.59
2019-05-07T01:29:15.879Z,98108.88
2019-05-07T01:30:17.715Z,98108.03
2019-05-07T01:31:22.214Z,98104.89
2019-05-07T01:32:26.520Z,98115.69
2019-05-07T01:33:46.667Z,98112.89
2019-05-07T01:34:52.412Z,98116.41
2019-05-07T01:36:03.944Z,98118.20
2019-05-07T01:37:06.556Z,98118.91
2019-05-07T01:38:08.721Z,98121.22
2019-05-07T01:39:13.086Z,98119.58
2019-05-07T01:40:15.793Z,98117.09
2019-05-07T01:41:18.183Z,98120.09
2019-05-07T01:42:22.135Z,98121.70
2019-05-07T01:43:24.664Z,98124.20
2019-05-07T01:44:27.151Z,98130.69
2019-05-07T01:45:43.199Z,98131.69
2019-05-07T01:46:33.701Z,98130.91
2019-05-07T01:47:36.350Z,98126.55
2019-05-07T01:48:38.067Z,98132.84
2019-05-07T01:49:42.198Z,98127.38
2019-05-07T01:50:44.499Z,98131.03
2019-05-07T01:51:46.861Z,98130.84
2019-05-07T01:52:49.660Z,98136.34
2019-05-07T01:53:52.509Z,98132.36
2019-05-07T01:54:55.065Z,98130.03
2019-05-07T01:55:57.569Z,98129.56
2019-05-07T01:57:02.666Z,98133.87
2019-05-07T01:58:05.247Z,98136.67
2019-05-07T01:59:07.688Z,98137.16
2019-05-07T02:00:12.891Z,98140.18
2019-05-07T02:01:15.439Z,98131.77
2019-05-07T02:02:22.989Z,98134.27
2019-05-07T02:03:32.940Z,98132.25
2019-05-07T02:04:37.514Z,98132.25
2019-05-07T02:05:56.685Z,98129.28
2019-05-07T02:07:17.741Z,98128.81
2019-05-07T02:08:42.305Z,98126.00
2019-05-07T02:09:44.669Z,98129.62
2019-05-07T02:10:55.169Z,98132.64
2019-05-07T02:12:02.286Z,98134.13
2019-05-07T02:13:03.951Z,98133.81
2019-05-07T02:14:06.491Z,98134.81
2019-05-07T02:15:11.842Z,98134.81
2019-05-07T02:16:13.973Z,98136.95
2019-05-07T02:17:16.499Z,98135.30
2019-05-07T02:18:18.910Z,98133.34
2019-05-07T02:19:22.007Z,98132.98
2019-05-07T02:20:24.654Z,98136.63
2019-05-07T02:21:27.202Z,98134.30
2019-05-07T02:22:29.476Z,98132.66
2019-05-07T02:23:33.039Z,98132.34
2019-05-07T02:24:35.419Z,98131.65
2019-05-07T02:25:37.852Z,98141.93
2019-05-07T02:26:42.520Z,98140.45
2019-05-07T02:27:44.178Z,98143.09
2019-05-07T02:28:46.482Z,98142.45
2019-05-07T02:29:49.135Z,98139.95
2019-05-07T02:30:53.550Z,98143.10
2019-05-07T02:31:54.600Z,98133.81
2019-05-07T02:32:57.000Z,98135.63
2019-05-07T02:34:02.540Z,98135.30
2019-05-07T02:35:04.601Z,98143.25
2019-05-07T02:36:07.369Z,98139.97
2019-05-07T02:37:11.112Z,98137.79
2019-05-07T02:38:15.302Z,98140.60
2019-05-07T02:39:19.434Z,98140.45
2019-05-07T02:40:23.761Z,98140.45
2019-05-07T02:41:27.921Z,98138.34
2019-05-07T02:42:33.587Z,98141.14
2019-05-07T02:43:34.962Z,98140.97
2019-05-07T02:44:55.601Z,98144.43
2019-05-07T02:46:20.750Z,98137.80
2019-05-07T02:47:12.709Z,98134.35
2019-05-07T02:48:15.873Z,98135.67
2019-05-07T02:49:25.966Z,98138.98
2019-05-07T02:50:32.959Z,98138.66
2019-05-07T02:51:43.215Z,98136.70
2019-05-07T02:53:04.268Z,98136.23
2019-05-07T02:54:25.595Z,98140.36
2019-05-07T02:55:33.436Z,98138.52
2019-05-07T02:56:34.884Z,98139.04
2019-05-07T02:57:38.112Z,98145.36
2019-05-07T02:58:43.193Z,98146.36
2019-05-07T02:59:45.099Z,98141.72
2019-05-07T03:00:47.201Z,98145.04
2019-05-07T03:01:49.759Z,98143.39
2019-05-07T03:02:53.216Z,98140.91
2019-05-07T03:03:56.954Z,98141.08
2019-05-07T03:04:59.839Z,98141.56
2019-05-07T03:06:02.934Z,98142.77
2019-05-07T03:07:05.094Z,98145.06
2019-05-07T03:08:07.589Z,98147.23
2019-05-07T03:09:14.090Z,98148.55
2019-05-07T03:10:14.406Z,98150.72
2019-05-07T03:11:17.522Z,98149.24
2019-05-07T03:12:23.656Z,98150.56
2019-05-07T03:13:25.318Z,98153.84
2019-05-07T03:14:27.963Z,98153.38
2019-05-07T03:15:33.194Z,98153.69
2019-05-07T03:16:43.751Z,98156.83
2019-05-07T03:17:42.950Z,98155.02
2019-05-07T03:18:45.934Z,98147.92
2019-05-07T03:19:53.197Z,98146.27
2019-05-07T03:21:05.526Z,98153.70
2019-05-07T03:22:08.033Z,98155.03
2019-05-07T03:23:13.387Z,98156.00
2019-05-07T03:24:18.274Z,98157.16
2019-05-07T03:25:25.670Z,98151.72
2019-05-07T03:26:33.966Z,98156.52
2019-05-07T03:27:35.270Z,98155.52
2019-05-07T03:28:55.990Z,98159.65
2019-05-07T03:30:18.080Z,98160.66
2019-05-07T03:31:26.069Z,98158.33
2019-05-07T03:32:40.961Z,98162.14
2019-05-07T03:34:06.812Z,98158.22
2019-05-07T03:35:10.021Z,98155.37
2019-05-07T03:36:16.657Z,98167.28
2019-05-07T03:37:18.787Z,98164.63
2019-05-07T03:38:22.837Z,98167.77
2019-05-07T03:39:25.953Z,98166.96
2019-05-07T03:40:28.864Z,98170.13
2019-05-07T03:41:33.347Z,98169.45
2019-05-07T03:42:35.744Z,98169.30
2019-05-07T03:43:38.240Z,98165.81
2019-05-07T03:44:45.630Z,98164.16
2019-05-07T03:45:54.116Z,98165.97
2019-05-07T03:47:03.270Z,98169.30
2019-05-07T03:48:03.769Z,98171.58
2019-05-07T03:49:07.843Z,98177.23
2019-05-07T03:50:14.718Z,98168.61
2019-05-07T03:51:16.453Z,98174.11
2019-05-07T03:52:18.572Z,98180.20
2019-05-07T03:53:23.196Z,98175.23
2019-05-07T03:54:24.935Z,98171.09
2019-05-07T03:55:27.107Z,98177.23
2019-05-07T03:56:29.333Z,98175.22
2019-05-07T03:57:33.661Z,98175.07
2019-05-07T03:58:36.676Z,98176.06
2019-05-07T03:59:39.000Z,98179.20
2019-05-07T04:00:44.161Z,98178.20
2019-05-07T04:01:48.188Z,98177.03
2019-05-07T04:02:52.804Z,98187.14
2019-05-07T04:03:54.378Z,98182.68
2019-05-07T04:04:56.714Z,98183.17
2019-05-07T04:05:59.652Z,98185.66
2019-05-07T04:07:03.358Z,98181.37
2019-05-07T04:08:06.483Z,98183.50
2019-05-07T04:09:09.662Z,98190.11
2019-05-07T04:10:14.897Z,98190.62
2019-05-07T04:11:17.749Z,98195.77
2019-05-07T04:12:19.547Z,98191.80
2019-05-07T04:13:23.864Z,98189.16
2019-05-07T04:14:26.448Z,98195.13
2019-05-07T04:15:32.962Z,98199.42
2019-05-07T04:16:38.282Z,98190.80
2019-05-07T04:17:42.948Z,98195.77
2019-05-07T04:18:44.727Z,98196.25
2019-05-07T04:19:46.634Z,98200.38
2019-05-07T04:20:48.836Z,98196.45
2019-05-07T04:21:53.391Z,98192.48
2019-05-07T04:22:57.484Z,98193.59
2019-05-07T04:24:04.496Z,98196.45
2019-05-07T04:25:19.305Z,98193.59
2019-05-07T04:26:35.553Z,98191.59
2019-05-07T04:27:44.151Z,98189.95
2019-05-07T04:29:04.829Z,98195.88
2019-05-07T04:30:08.766Z,98195.88
2019-05-07T04:31:10.508Z,98196.25
2019-05-07T04:32:14.459Z,98194.74
2019-05-07T04:33:18.877Z,98194.28
2019-05-07T04:34:23.935Z,98189.94
2019-05-07T04:35:33.957Z,98188.78
2019-05-07T04:36:38.330Z,98196.70
2019-05-07T04:37:42.744Z,98191.92
2019-05-07T04:38:45.539Z,98195.06
2019-05-07T04:39:54.098Z,98189.59
2019-05-07T04:40:57.152Z,98192.08
2019-05-07T04:41:59.409Z,98190.07
2019-05-07T04:43:02.695Z,98195.05
2019-05-07T04:44:05.400Z,98199.19
2019-05-07T04:45:08.172Z,98189.43
2019-05-07T04:46:10.035Z,98190.75
2019-05-07T04:47:13.286Z,98191.23
2019-05-07T04:48:16.420Z,98196.00
2019-05-07T04:49:18.866Z,98197.17
2019-05-07T04:50:37.923Z,98198.00
2019-05-07T04:51:29.047Z,98200.64
2019-05-07T04:52:38.002Z,98197.69
2019-05-07T04:53:42.933Z,98202.30
2019-05-07T04:54:44.753Z,98198.95
2019-05-07T04:55:47.566Z,98198.65
2019-05-07T04:56:52.866Z,98200.34
2019-05-07T04:57:53.626Z,98198.36
2019-05-07T04:58:55.816Z,98201.86
2019-05-07T04:59:59.238Z,98201.75
2019-05-07T05:01:03.278Z,98204.23
2019-05-07T05:02:07.285Z,98201.79
2019-05-07T05:03:23.425Z,98205.08
2019-05-07T05:04:30.215Z,98205.44
2019-05-07T05:05:28.863Z,98208.73
2019-05-07T05:06:32.752Z,98213.38
2019-05-07T05:07:34.821Z,98212.34
2019-05-07T05:08:38.610Z,98207.56
2019-05-07T05:09:42.733Z,98212.81
2019-05-07T05:10:44.690Z,98207.20
2019-05-07T05:11:47.217Z,98216.99
2019-05-07T05:12:49.980Z,98216.31
2019-05-07T05:13:53.316Z,98211.02
2019-05-07T05:14:55.774Z,98217.31
2019-05-07T05:16:01.921Z,98214.34
2019-05-07T05:17:06.316Z,98214.34
2019-05-07T05:18:08.740Z,98214.19
2019-05-07T05:19:12.561Z,98210.85
2019-05-07T05:20:16.304Z,98216.31
2019-05-07T05:21:19.958Z,98213.34
2019-05-07T05:22:31.745Z,98210.70
2019-05-07T05:23:37.758Z,98221.61
2019-05-07T05:24:44.862Z,98217.48
2019-05-07T05:25:47.147Z,98214.02
2019-05-07T05:26:49.386Z,98218.80
2019-05-07T05:27:52.399Z,98214.98
2019-05-07T05:28:56.151Z,98213.98
2019-05-07T05:29:58.508Z,98218.00
2019-05-07T05:31:03.389Z,98221.12
2019-05-07T05:32:06.137Z,98217.84
2019-05-07T05:33:09.194Z,98218.84
2019-05-07T05:34:13.063Z,98221.00
2019-05-07T05:35:16.461Z,98226.29
2019-05-07T05:36:22.035Z,98218.35
2019-05-07T05:37:24.473Z,98223.80
2019-05-07T05:38:27.095Z,98227.61
2019-05-07T05:39:31.877Z,98220.35
2019-05-07T05:40:35.775Z,98223.31
2019-05-07T05:41:42.184Z,98223.16
2019-05-07T05:42:49.440Z,98221.67
2019-05-07T05:44:03.024Z,98220.00
2019-05-07T05:45:08.835Z,98221.31
2019-05-07T05:46:13.135Z,98221.00
2019-05-07T05:47:15.717Z,98220.67
2019-05-07T05:48:17.974Z,98225.64
2019-05-07T05:49:22.997Z,98224.64
2019-05-07T05:50:28.223Z,98224.13
2019-05-07T05:51:32.695Z,98224.61
2019-05-07T05:52:37.776Z,98225.29
2019-05-07T05:53:43.340Z,98227.94
2019-05-07T05:54:48.968Z,98226.61
2019-05-07T05:55:52.858Z,98227.94
2019-05-07T05:57:03.714Z,98233.88
2019-05-07T05:58:14.184Z,98230.58
2019-05-07T05:59:27.910Z,98231.58
2019-05-07T06:00:42.296Z,98229.42
2019-05-07T06:02:06.332Z,98227.48
2019-05-07T06:03:27.720Z,98229.94
2019-05-07T06:04:36.178Z,98234.89
2019-05-07T06:05:38.866Z,98230.44
2019-05-07T06:07:01.123Z,98233.93
2019-05-07T06:08:03.737Z,98232.92
2019-05-07T06:09:27.831Z,98226.31
2019-05-07T06:10:35.142Z,98234.76
2019-05-07T06:11:55.603Z,98230.14
2019-05-07T06:13:01.623Z,98227.50
2019-05-07T06:14:10.291Z,98227.02
2019-05-07T06:15:19.589Z,98231.63
2019-05-07T06:16:23.810Z,98231.77
2019-05-07T06:17:43.099Z,98230.13
2019-05-07T06:19:04.159Z,98233.74
2019-05-07T06:20:27.165Z,98240.16
2019-05-07T06:21:41.877Z,98239.16
2019-05-07T06:22:47.005Z,98235.20
2019-05-07T06:23:52.815Z,98231.19
2019-05-07T06:25:01.827Z,98234.84
2019-05-07T06:26:05.496Z,98228.73
2019-05-07T06:27:07.986Z,98230.22
2019-05-07T06:28:12.688Z,98235.00
2019-05-07T06:29:15.481Z,98229.86
2019-05-07T06:30:19.314Z,98232.47
2019-05-07T06:31:24.035Z,98235.11
2019-05-07T06:32:26.686Z,98227.52
2019-05-07T06:33:29.357Z,98225.36
2019-05-07T06:34:34.270Z,98226.67
2019-05-07T06:35:38.641Z,98232.45
2019-05-07T06:36:42.410Z,98227.77
2019-05-07T06:37:46.347Z,98229.58
2019-05-07T06:38:53.735Z,98222.95
2019-05-07T06:40:02.598Z,98226.33
2019-05-07T06:41:07.279Z,98222.40
2019-05-07T06:42:22.219Z,98221.56
2019-05-07T06:43:27.389Z,98222.73
2019-05-07T06:44:29.483Z,98223.57
2019-05-07T06:45:35.323Z,98229.98
2019-05-07T06:46:38.820Z,98228.70
2019-05-07T06:47:42.477Z,98234.70
2019-05-07T06:48:46.466Z,98225.80
2019-05-07T06:49:48.789Z,98233.44
2019-05-07T06:50:57.024Z,98233.78
2019-05-07T06:51:59.271Z,98227.49
2019-05-07T06:53:02.621Z,98229.16
2019-05-07T06:54:05.624Z,98231.80
2019-05-07T06:55:07.883Z,98228.47
2019-05-07T06:56:12.226Z,98232.81
2019-05-07T06:57:17.225Z,98228.78
2019-05-07T06:58:21.949Z,98232.75
2019-05-07T06:59:26.409Z,98230.26
2019-05-07T07:00:32.849Z,98234.03
2019-05-07T07:01:43.740Z,98229.72
2019-05-07T07:02:48.375Z,98226.69
2019-05-07T07:04:02.933Z,98222.58
2019-05-07T07:05:07.952Z,98228.56
2019-05-07T07:06:15.152Z,98223.79
2019-05-07T07:07:29.636Z,98225.13
2019-05-07T07:08:42.877Z,98231.12
2019-05-07T07:10:02.691Z,98227.31
2019-05-07T07:11:08.384Z,98231.17
2019-05-07T07:12:13.852Z,98231.83
2019-05-07T07:13:16.428Z,98229.82
2019-05-07T07:14:19.312Z,98225.83
2019-05-07T07:15:23.176Z,98228.78
2019-05-07T07:16:27.076Z,98231.59
2019-05-07T07:17:29.870Z,98233.87
2019-05-07T07:18:32.926Z,98236.05
2019-05-07T07:19:36.337Z,98236.99
2019-05-07T07:20:39.118Z,98234.88
2019-05-07T07:21:42.238Z,98231.23
2019-05-07T07:22:44.715Z,98236.05
2019-05-07T07:23:47.646Z,98235.36
2019-05-07T07:24:50.382Z,98237.67
2019-05-07T07:25:55.001Z,98235.49
2019-05-07T07:26:57.785Z,98229.03
2019-05-07T07:27:59.575Z,98228.70
2019-05-07T07:29:02.262Z,98233.49
2019-05-07T07:30:21.866Z,98228.39
2019-05-07T07:31:32.005Z,98239.33
2019-05-07T07:32:39.524Z,98235.41
2019-05-07T07:33:46.835Z,98234.77
2019-05-07T07:34:53.205Z,98233.44
2019-05-07T07:35:56.151Z,98235.09
2019-05-07T07:37:15.558Z,98233.33
2019-05-07T07:38:34.896Z,98235.97
2019-05-07T07:39:37.224Z,98235.81
2019-05-07T07:40:43.434Z,98236.93
2019-05-07T07:41:47.816Z,98234.44
2019-05-07T07:42:51.944Z,98232.48
2019-05-07T07:43:54.889Z,98223.73
2019-05-07T07:45:16.609Z,98224.84
2019-05-07T07:46:19.022Z,98232.47
2019-05-07T07:47:22.355Z,98231.36
2019-05-07T07:48:24.959Z,98225.22
2019-05-07T07:49:28.567Z,98232.24
2019-05-07T07:50:33.050Z,98232.24
2019-05-07T07:51:41.585Z,98232.56
2019-05-07T07:52:41.931Z,98231.89
2019-05-07T07:53:44.388Z,98228.39
2019-05-07T07:54:46.852Z,98234.56
2019-05-07T07:55:53.054Z,98233.72
2019-05-07T07:57:03.507Z,98231.44
2019-05-07T07:58:14.854Z,98228.89
2019-05-07T07:59:25.764Z,98228.73
2019-05-07T08:00:32.891Z,98233.23
2019-05-07T08:01:53.692Z,98236.14
2019-05-07T08:02:57.919Z,98239.48
2019-05-07T08:04:02.812Z,98237.15
2019-05-07T08:05:06.003Z,98235.34
2019-05-07T08:06:08.814Z,98225.20
2019-05-07T08:07:12.411Z,98234.81
2019-05-07T08:08:15.000Z,98223.71
2019-05-07T08:09:17.892Z,98227.55
2019-05-07T08:10:22.148Z,98236.64
2019-05-07T08:11:24.770Z,98242.06
2019-05-07T08:12:26.730Z,98236.12
2019-05-07T08:13:29.702Z,98239.08
2019-05-07T08:14:32.760Z,98246.24
2019-05-07T08:15:35.126Z,98248.69
2019-05-07T08:16:38.027Z,98242.56
2019-05-07T08:17:41.897Z,98248.64
2019-05-07T08:18:44.727Z,98246.46
2019-05-07T08:19:47.078Z,98242.63
2019-05-07T08:20:51.940Z,98246.46
2019-05-07T08:21:53.687Z,98243.29
2019-05-07T08:22:58.129Z,98241.16
2019-05-07T08:24:02.726Z,98244.98
2019-05-07T08:25:05.549Z,98242.98
2019-05-07T08:26:07.895Z,98237.02
2019-05-07T08:27:12.843Z,98246.63
2019-05-07T08:28:17.465Z,98251.95
2019-05-07T08:29:19.898Z,98245.47
2019-05-07T08:30:24.198Z,98253.59
2019-05-07T08:31:31.920Z,98246.02
2019-05-07T08:32:36.375Z,98248.19
2019-05-07T08:33:53.030Z,98244.98
2019-05-07T08:35:15.771Z,98240.97
2019-05-07T08:36:18.803Z,98234.32
2019-05-07T08:37:24.546Z,98233.98
2019-05-07T08:38:32.588Z,98235.81
2019-05-07T08:39:33.256Z,98244.76
2019-05-07T08:40:35.658Z,98244.29
2019-05-07T08:41:38.370Z,98243.96
2019-05-07T08:42:41.873Z,98240.48
2019-05-07T08:43:45.531Z,98243.62
2019-05-07T08:45:03.712Z,98241.81
2019-05-07T08:46:17.705Z,98249.97
2019-05-07T08:47:22.689Z,98247.03
2019-05-07T08:48:26.404Z,98247.95
2019-05-07T08:49:36.851Z,98242.72
2019-05-07T08:50:34.302Z,98249.20
2019-05-07T08:51:36.487Z,98245.06
2019-05-07T08:52:38.644Z,98237.75
2019-05-07T08:53:42.296Z,98241.41
2019-05-07T08:54:45.895Z,98242.42
2019-05-07T08:55:48.491Z,98240.94
2019-05-07T08:56:52.770Z,98239.08
2019-05-07T08:57:55.563Z,98240.70
2019-05-07T08:58:58.079Z,98247.03
2019-05-07T09:00:04.595Z,98243.59
2019-05-07T09:01:07.472Z,98247.41
2019-05-07T09:02:12.362Z,98243.82
2019-05-07T09:03:22.096Z,98246.27
2019-05-07T09:04:22.237Z,98245.25
2019-05-07T09:05:26.250Z,98242.60
2019-05-07T09:06:33.761Z,98243.91
2019-05-07T09:07:36.303Z,98239.08
2019-05-07T09:08:38.646Z,98239.08
2019-05-07T09:09:42.728Z,98244.37
2019-05-07T09:10:46.853Z,98243.53
2019-05-07T09:11:49.357Z,98240.70
2019-05-07T09:12:52.595Z,98248.36
2019-05-07T09:13:55.645Z,98251.03
2019-05-07T09:14:58.141Z,98253.37
2019-05-07T09:16:02.357Z,98251.23
2019-05-07T09:17:05.376Z,98253.43
2019-05-07T09:18:07.915Z,98254.59
2019-05-07T09:19:09.677Z,98258.10
2019-05-07T09:20:12.955Z,98250.16
2019-05-07T09:21:15.383Z,98251.78
2019-05-07T09:22:17.945Z,98247.49
2019-05-07T09:23:22.304Z,98247.14
2019-05-07T09:24:24.378Z,98254.07
2019-05-07T09:25:26.472Z,98252.05
2019-05-07T09:26:34.438Z,98244.40
2019-05-07T09:27:42.348Z,98251.39
2019-05-07T09:29:02.523Z,98245.94
2019-05-07T09:30:19.255Z,98251.84
2019-05-07T09:31:25.400Z,98246.70
2019-05-07T09:32:29.998Z,98248.34
2019-05-07T09:33:34.446Z,98250.16
2019-05-07T09:34:41.580Z,98255.27
2019-05-07T09:35:46.248Z,98253.75
2019-05-07T09:36:53.699Z,98259.72
2019-05-07T09:37:56.292Z,98253.41
2019-05-07T09:39:00.173Z,98240.79
2019-05-07T09:40:04.930Z,98250.55
2019-05-07T09:41:12.028Z,98253.20
2019-05-07T09:42:14.079Z,98254.53
2019-05-07T09:43:16.479Z,98244.92
2019-05-07T09:44:19.023Z,98258.02
2019-05-07T09:45:22.437Z,98257.54
2019-05-07T09:46:25.350Z,98256.21
2019-05-07T09:47:28.025Z,98256.90
2019-05-07T09:48:31.055Z,98242.47
2019-05-07T09:49:33.559Z,98254.53
2019-05-07T09:50:36.076Z,98263.16
2019-05-07T09:51:39.019Z,98258.34
2019-05-07T09:52:42.666Z,98258.67
2019-05-07T09:53:45.833Z,98255.84
2019-05-07T09:54:48.137Z,98254.44
2019-05-07T09:55:51.642Z,98255.72
2019-05-07T09:56:54.957Z,98260.36
2019-05-07T09:57:57.417Z,98262.05
2019-05-07T09:59:02.031Z,98261.44
2019-05-07T10:00:06.738Z,98255.67
2019-05-07T10:01:12.400Z,98260.45
2019-05-07T10:02:16.822Z,98267.92
2019-05-07T10:03:20.146Z,98268.06
2019-05-07T10:04:23.291Z,98258.78
2019-05-07T10:05:25.972Z,98257.75
2019-05-07T10:06:28.868Z,98257.06
2019-05-07T10:07:32.518Z,98258.77
2019-05-07T10:08:35.488Z,98263.84
2019-05-07T10:09:37.948Z,98258.22
2019-05-07T10:10:44.686Z,98253.66
2019-05-07T10:11:49.138Z,98256.14
2019-05-07T10:12:56.162Z,98255.77
2019-05-07T10:14:03.093Z,98254.73
2019-05-07T10:15:08.512Z,98258.19
2019-05-07T10:16:12.771Z,98244.37
2019-05-07T10:17:26.073Z,98255.85
2019-05-07T10:18:28.586Z,98259.52
2019-05-07T10:19:32.482Z,98259.05
2019-05-07T10:20:36.790Z,98255.70
2019-05-07T10:21:38.946Z,98252.08
2019-05-07T10:22:42.849Z,98247.95
2019-05-07T10:23:47.659Z,98243.91
2019-05-07T10:24:49.508Z,98248.09
2019-05-07T10:25:52.979Z,98245.58
2019-05-07T10:26:55.824Z,98241.08
2019-05-07T10:27:59.057Z,98247.83
2019-05-07T10:29:02.221Z,98221.73
2019-05-07T10:30:05.487Z,98243.88
2019-05-07T10:31:08.901Z,98254.03
2019-05-07T10:32:12.818Z,98251.87
2019-05-07T10:33:18.136Z,98245.38
2019-05-07T10:34:22.803Z,98240.36
2019-05-07T10:35:25.598Z,98244.72
2019-05-07T10:36:27.636Z,98249.05
2019-05-07T10:37:31.895Z,98248.90
2019-05-07T10:38:35.961Z,98247.95
2019-05-07T10:39:40.359Z,98243.13
2019-05-07T10:40:42.451Z,98238.71
2019-05-07T10:41:45.785Z,98245.84
2019-05-07T10:42:48.491Z,98258.02
2019-05-07T10:43:51.953Z,98250.08
2019-05-07T10:45:02.935Z,98261.73
2019-05-07T10:46:16.315Z,98252.13
2019-05-07T10:47:32.553Z,98250.14
2019-05-07T10:48:42.730Z,98246.63
2019-05-07T10:49:47.361Z,98244.45
2019-05-07T10:51:02.098Z,98242.72
2019-05-07T10:52:04.425Z,98248.55
2019-05-07T10:53:07.990Z,98250.89
2019-05-07T10:54:12.488Z,98245.06
2019-05-07T10:55:14.616Z,98242.50
2019-05-07T10:56:18.268Z,98246.10
2019-05-07T10:57:22.355Z,98255.39
2019-05-07T10:58:25.103Z,98249.45
2019-05-07T10:59:27.819Z,98250.78
2019-05-07T11:00:33.124Z,98250.31
2019-05-07T11:01:37.972Z,98244.34
2019-05-07T11:02:43.294Z,98247.95
2019-05-07T11:03:46.888Z,98242.73
2019-05-07T11:04:49.200Z,98235.92
2019-05-07T11:05:52.041Z,98242.67
2019-05-07T11:06:54.354Z,98241.80
2019-05-07T11:07:58.468Z,98247.75
2019-05-07T11:09:01.528Z,98242.98
2019-05-07T11:10:06.673Z,98233.87
2019-05-07T11:11:09.305Z,98235.02
2019-05-07T11:12:12.723Z,98229.52
2019-05-07T11:13:16.206Z,98242.30
2019-05-07T11:14:18.793Z,98242.64
2019-05-07T11:15:22.759Z,98241.11
2019-05-07T11:16:26.522Z,98248.23
2019-05-07T11:17:41.906Z,98252.22
2019-05-07T11:18:49.252Z,98259.66
2019-05-07T11:19:51.842Z,98254.78
2019-05-07T11:20:54.325Z,98249.51
2019-05-07T11:21:58.901Z,98252.97
2019-05-07T11:23:02.648Z,98243.53
2019-05-07T11:24:05.348Z,98250.17
2019-05-07T11:25:08.795Z,98267.12
2019-05-07T11:26:11.877Z,98251.92
2019-05-07T11:27:14.543Z,98247.28
2019-05-07T11:28:16.448Z,98252.09
2019-05-07T11:29:19.271Z,98243.67
2019-05-07T11:30:22.824Z,98247.70
2019-05-07T11:31:25.511Z,98260.33
2019-05-07T11:32:28.135Z,98257.36
2019-05-07T11:33:32.562Z,98258.38
2019-05-07T11:34:36.741Z,98252.45
2019-05-07T11:35:39.326Z,98251.77
2019-05-07T11:36:42.960Z,98246.58
2019-05-07T11:37:45.437Z,98246.77
2019-05-07T11:38:47.879Z,98241.91
2019-05-07T11:39:52.310Z,98246.50
2019-05-07T11:40:55.278Z,98243.50
2019-05-07T11:41:59.533Z,98239.73
2019-05-07T11:43:13.508Z,98239.55
2019-05-07T11:44:19.393Z,98248.81
2019-05-07T11:45:27.982Z,98235.91
2019-05-07T11:46:32.719Z,98247.75
2019-05-07T11:47:35.836Z,98237.09
2019-05-07T11:48:40.086Z,98244.05
2019-05-07T11:50:03.173Z,98240.77
2019-05-07T11:51:23.737Z,98250.26
2019-05-07T11:52:29.119Z,98250.80
2019-05-07T11:53:33.235Z,98247.20
2019-05-07T11:54:35.058Z,98241.55
2019-05-07T11:55:37.767Z,98246.51
2019-05-07T11:56:42.259Z,98247.52
2019-05-07T11:57:44.853Z,98247.55
2019-05-07T11:58:47.280Z,98262.98
2019-05-07T11:59:51.658Z,98252.56
2019-05-07T12:00:55.217Z,98243.84
2019-05-07T12:01:59.410Z,98247.42
2019-05-07T12:03:02.370Z,98259.37
2019-05-07T12:04:07.256Z,98245.64
2019-05-07T12:05:12.073Z,98259.05
2019-05-07T12:06:14.771Z,98253.57
2019-05-07T12:07:18.267Z,98252.27
2019-05-07T12:08:37.381Z,98247.11
2019-05-07T12:09:27.984Z,98262.54
2019-05-07T12:10:32.585Z,98248.98
2019-05-07T12:11:34.962Z,98251.98
2019-05-07T12:12:39.666Z,98253.28
2019-05-07T12:13:43.797Z,98252.47
2019-05-07T12:14:46.170Z,98246.79
2019-05-07T12:15:49.075Z,98247.97
2019-05-07T12:16:51.708Z,98249.84
2019-05-07T12:17:54.262Z,98255.66
2019-05-07T12:18:56.116Z,98245.72
2019-05-07T12:20:02.285Z,98248.37
2019-05-07T12:21:17.408Z,98244.37
2019-05-07T12:22:09.304Z,98247.66
2019-05-07T12:23:15.002Z,98240.39
2019-05-07T12:24:17.494Z,98244.02
2019-05-07T12:25:20.314Z,98236.72
2019-05-07T12:26:22.621Z,98242.34
2019-05-07T12:27:25.106Z,98235.17
2019-05-07T12:28:27.878Z,98246.30
2019-05-07T12:29:32.315Z,98239.96
2019-05-07T12:30:52.246Z,98247.55
2019-05-07T12:32:09.787Z,98244.72
2019-05-07T12:33:32.633Z,98244.26
2019-05-07T12:34:37.148Z,98232.48
2019-05-07T12:35:41.919Z,98239.96
2019-05-07T12:36:43.630Z,98242.23
2019-05-07T12:37:49.330Z,98228.33
2019-05-07T12:38:50.544Z,98239.61
2019-05-07T12:39:52.857Z,98233.09
2019-05-07T12:40:55.836Z,98238.06
2019-05-07T12:41:58.452Z,98238.38
2019-05-07T12:43:01.965Z,98239.70
2019-05-07T12:44:07.181Z,98235.31
2019-05-07T12:45:09.937Z,98236.41